Terminal Aerodrome Forecast
Issued by NWS Indianapolis, IN

Home | Current Version | Previous Version | Text Only | Print | Product List | Glossary On
Versions: 1 2 3 4 5 6 7 8 9 10 11 12 13 14 15 16 17 18 19 20 21 22 23 24 25 26 27 28 29
000
FTUS43 KIND 010500
TAFIND
TAF
KIND 010536Z 0106/0212 14005KT 4SM BR BKN025 OVC050
      TEMPO 0108/0111 1 1/2SM -RASN BKN015 OVC050
     FM011600 12011KT 3SM -RASN BR BKN015 OVC040
     FM011800 13011KT 1 1/2SM -RASN BR BKN007 OVC015
     FM012200 15006KT 3/4SM -RASN BR OVC004
     FM020200 34013KT 2SM -SN BR OVC007=

USA.gov is the U.S. government's official web portal to all federal, state and local government web resources and services.